sensor_id;sensor_type;location;lat;lon;timestamp;pressure;altitude;pressure_sealevel;temperature;humidity
58662;BME280;44432;49.786;22.760;2023-05-02T00:00:15;99540.29;;;7.33;60.65
58662;BME280;44432;49.786;22.760;2023-05-02T00:03:04;99536.64;;;7.25;60.95
58662;BME280;44432;49.786;22.760;2023-05-02T00:05:34;99541.98;;;7.16;61.42
58662;BME280;44432;49.786;22.760;2023-05-02T00:08:03;99542.30;;;7.08;61.59
58662;BME280;44432;49.786;22.760;2023-05-02T00:10:32;99541.14;;;7.04;61.66
58662;BME280;44432;49.786;22.760;2023-05-02T00:13:01;99540.00;;;7.00;61.84
58662;BME280;44432;49.786;22.760;2023-05-02T00:15:30;99543.63;;;6.96;62.02
58662;BME280;44432;49.786;22.760;2023-05-02T00:18:00;99549.86;;;6.94;62.45
58662;BME280;44432;49.786;22.760;2023-05-02T00:20:29;99550.63;;;6.90;63.36
58662;BME280;44432;49.786;22.760;2023-05-02T00:22:58;99551.55;;;6.87;63.64
58662;BME280;44432;49.786;22.760;2023-05-02T00:25:27;99554.23;;;6.83;64.14
58662;BME280;44432;49.786;22.760;2023-05-02T00:27:56;99552.33;;;6.79;64.69
58662;BME280;44432;49.786;22.760;2023-05-02T00:30:25;99555.46;;;6.72;64.87
58662;BME280;44432;49.786;22.760;2023-05-02T00:32:55;99554.14;;;6.64;64.69
58662;BME280;44432;49.786;22.760;2023-05-02T00:35:24;99558.59;;;6.57;65.02
58662;BME280;44432;49.786;22.760;2023-05-02T00:37:53;99552.58;;;6.50;65.25
58662;BME280;44432;49.786;22.760;2023-05-02T00:40:22;99555.94;;;6.44;65.22
58662;BME280;44432;49.786;22.760;2023-05-02T00:42:51;99557.42;;;6.39;65.67
58662;BME280;44432;49.786;22.760;2023-05-02T00:45:20;99554.73;;;6.32;65.88
58662;BME280;44432;49.786;22.760;2023-05-02T00:47:49;99551.59;;;6.26;66.22
58662;BME280;44432;49.786;22.760;2023-05-02T00:50:18;99555.98;;;6.21;66.47
58662;BME280;44432;49.786;22.760;2023-05-02T00:52:47;99554.79;;;6.15;66.59
58662;BME280;44432;49.786;22.760;2023-05-02T00:55:16;99551.02;;;6.07;66.84
58662;BME280;44432;49.786;22.760;2023-05-02T00:57:46;99550.40;;;6.03;67.06
58662;BME280;44432;49.786;22.760;2023-05-02T01:00:16;99553.19;;;5.99;67.49
58662;BME280;44432;49.786;22.760;2023-05-02T01:02:47;99549.94;;;5.95;67.96
58662;BME280;44432;49.786;22.760;2023-05-02T01:05:20;99553.27;;;5.90;68.23
58662;BME280;44432;49.786;22.760;2023-05-02T01:08:09;99553.67;;;5.86;68.53
58662;BME280;44432;49.786;22.760;2023-05-02T01:10:43;99551.35;;;5.81;68.92
58662;BME280;44432;49.786;22.760;2023-05-02T01:13:18;99558.83;;;5.77;69.30
58662;BME280;44432;49.786;22.760;2023-05-02T01:15:49;99564.73;;;5.74;69.62
58662;BME280;44432;49.786;22.760;2023-05-02T01:18:20;99560.06;;;5.70;69.76
58662;BME280;44432;49.786;22.760;2023-05-02T01:20:52;99558.70;;;5.66;69.97
58662;BME280;44432;49.786;22.760;2023-05-02T01:23:24;99561.64;;;5.61;70.08
58662;BME280;44432;49.786;22.760;2023-05-02T01:26:02;99565.50;;;5.56;70.18
58662;BME280;44432;49.786;22.760;2023-05-02T01:31:05;99563.52;;;5.46;70.18
58662;BME280;44432;49.786;22.760;2023-05-02T01:33:35;99562.18;;;5.41;70.17
58662;BME280;44432;49.786;22.760;2023-05-02T01:36:06;99562.96;;;5.36;70.39
58662;BME280;44432;49.786;22.760;2023-05-02T01:38:35;99555.16;;;5.32;70.60
58662;BME280;44432;49.786;22.760;2023-05-02T01:41:06;99555.81;;;5.28;70.61
58662;BME280;44432;49.786;22.760;2023-05-02T01:43:36;99552.45;;;5.25;70.93
58662;BME280;44432;49.786;22.760;2023-05-02T01:46:06;99550.98;;;5.21;70.93
58662;BME280;44432;49.786;22.760;2023-05-02T01:48:36;99548.75;;;5.18;71.21
58662;BME280;44432;49.786;22.760;2023-05-02T01:51:06;99551.45;;;5.15;71.32
58662;BME280;44432;49.786;22.760;2023-05-02T01:53:36;99550.44;;;5.14;71.45
58662;BME280;44432;49.786;22.760;2023-05-02T01:56:06;99546.19;;;5.13;71.54
58662;BME280;44432;49.786;22.760;2023-05-02T01:58:35;99550.50;;;5.09;71.42
58662;BME280;44432;49.786;22.760;2023-05-02T02:01:04;99543.52;;;5.04;71.52
58662;BME280;44432;49.786;22.760;2023-05-02T02:03:34;99549.11;;;5.01;71.73
58662;BME280;44432;49.786;22.760;2023-05-02T02:06:03;99548.04;;;4.99;71.79
58662;BME280;44432;49.786;22.760;2023-05-02T02:08:33;99546.69;;;4.97;71.87
58662;BME280;44432;49.786;22.760;2023-05-02T02:11:03;99541.89;;;4.95;72.11
58662;BME280;44432;49.786;22.760;2023-05-02T02:13:38;99546.01;;;4.96;72.17
58662;BME280;44432;49.786;22.760;2023-05-02T02:16:09;99546.11;;;4.95;72.30
58662;BME280;44432;49.786;22.760;2023-05-02T02:18:39;99546.73;;;4.92;72.34
58662;BME280;44432;49.786;22.760;2023-05-02T02:21:09;99545.70;;;4.90;72.84
58662;BME280;44432;49.786;22.760;2023-05-02T02:23:40;99546.16;;;4.88;72.96
58662;BME280;44432;49.786;22.760;2023-05-02T02:26:11;99547.38;;;4.85;72.97
58662;BME280;44432;49.786;22.760;2023-05-02T02:28:40;99547.42;;;4.81;73.25
58662;BME280;44432;49.786;22.760;2023-05-02T02:31:09;99550.84;;;4.79;73.20
58662;BME280;44432;49.786;22.760;2023-05-02T02:33:38;99552.02;;;4.76;73.26
58662;BME280;44432;49.786;22.760;2023-05-02T02:36:10;99548.63;;;4.72;73.30
58662;BME280;44432;49.786;22.760;2023-05-02T02:38:41;99551.39;;;4.68;73.16
58662;BME280;44432;49.786;22.760;2023-05-02T02:41:13;99551.33;;;4.63;73.34
58662;BME280;44432;49.786;22.760;2023-05-02T02:43:46;99548.02;;;4.58;73.52
58662;BME280;44432;49.786;22.760;2023-05-02T02:46:19;99549.20;;;4.55;73.47
58662;BME280;44432;49.786;22.760;2023-05-02T02:48:54;99553.06;;;4.52;73.58
58662;BME280;44432;49.786;22.760;2023-05-02T02:51:27;99551.91;;;4.50;73.66
58662;BME280;44432;49.786;22.760;2023-05-02T02:53:59;99548.78;;;4.48;73.67
58662;BME280;44432;49.786;22.760;2023-05-02T02:56:32;99546.17;;;4.43;73.89
58662;BME280;44432;49.786;22.760;2023-05-02T02:59:05;99552.17;;;4.43;74.17
58662;BME280;44432;49.786;22.760;2023-05-02T03:01:38;99552.08;;;4.41;74.07
58662;BME280;44432;49.786;22.760;2023-05-02T03:04:07;99553.02;;;4.38;74.28
58662;BME280;44432;49.786;22.760;2023-05-02T03:06:38;99561.98;;;4.36;74.41
58662;BME280;44432;49.786;22.760;2023-05-02T03:09:07;99563.91;;;4.33;74.57
58662;BME280;44432;49.786;22.760;2023-05-02T03:11:43;99567.27;;;4.32;75.08
58662;BME280;44432;49.786;22.760;2023-05-02T03:14:12;99568.35;;;4.32;74.78
58662;BME280;44432;49.786;22.760;2023-05-02T03:16:42;99569.33;;;4.33;75.01
58662;BME280;44432;49.786;22.760;2023-05-02T03:19:11;99569.79;;;4.33;75.06
58662;BME280;44432;49.786;22.760;2023-05-02T03:21:40;99567.56;;;4.33;74.87
58662;BME280;44432;49.786;22.760;2023-05-02T03:24:10;99569.85;;;4.33;74.95
58662;BME280;44432;49.786;22.760;2023-05-02T03:26:39;99575.83;;;4.34;75.34
58662;BME280;44432;49.786;22.760;2023-05-02T03:29:08;99572.14;;;4.35;75.28
58662;BME280;44432;49.786;22.760;2023-05-02T03:31:37;99572.39;;;4.40;75.57
58662;BME280;44432;49.786;22.760;2023-05-02T03:34:06;99574.77;;;4.43;75.58
58662;BME280;44432;49.786;22.760;2023-05-02T03:36:35;99580.10;;;4.49;75.54
58662;BME280;44432;49.786;22.760;2023-05-02T03:39:04;99581.09;;;4.54;75.61
58662;BME280;44432;49.786;22.760;2023-05-02T03:41:34;99581.09;;;4.59;75.76
58662;BME280;44432;49.786;22.760;2023-05-02T03:44:03;99582.45;;;4.64;75.50
58662;BME280;44432;49.786;22.760;2023-05-02T03:46:32;99586.49;;;4.70;75.56
58662;BME280;44432;49.786;22.760;2023-05-02T03:49:01;99585.04;;;4.77;75.45
58662;BME280;44432;49.786;22.760;2023-05-02T03:51:30;99590.08;;;4.85;75.56
58662;BME280;44432;49.786;22.760;2023-05-02T03:54:00;99593.78;;;4.94;75.58
58662;BME280;44432;49.786;22.760;2023-05-02T03:56:30;99590.95;;;5.02;75.44
58662;BME280;44432;49.786;22.760;2023-05-02T03:58:59;99593.40;;;5.10;75.26
58662;BME280;44432;49.786;22.760;2023-05-02T04:01:28;99597.48;;;5.18;75.19
58662;BME280;44432;49.786;22.760;2023-05-02T04:03:57;99600.48;;;5.26;75.10
58662;BME280;44432;49.786;22.760;2023-05-02T04:06:26;99601.45;;;5.37;75.04
58662;BME280;44432;49.786;22.760;2023-05-02T04:08:55;99596.95;;;5.45;75.13
58662;BME280;44432;49.786;22.760;2023-05-02T04:11:25;99593.10;;;5.56;75.06
58662;BME280;44432;49.786;22.760;2023-05-02T04:13:54;99590.77;;;5.68;74.76
58662;BME280;44432;49.786;22.760;2023-05-02T04:16:23;99589.42;;;5.80;74.51
58662;BME280;44432;49.786;22.760;2023-05-02T04:18:52;99589.39;;;5.90;74.28
58662;BME280;44432;49.786;22.760;2023-05-02T04:21:21;99589.33;;;6.02;74.16
58662;BME280;44432;49.786;22.760;2023-05-02T04:23:50;99584.87;;;6.15;73.90
58662;BME280;44432;49.786;22.760;2023-05-02T04:26:19;99586.39;;;6.29;73.71
58662;BME280;44432;49.786;22.760;2023-05-02T04:28:48;99586.86;;;6.43;73.43
58662;BME280;44432;49.786;22.760;2023-05-02T04:31:18;99585.52;;;6.54;73.11
58662;BME280;44432;49.786;22.760;2023-05-02T04:33:47;99584.13;;;6.67;73.13
58662;BME280;44432;49.786;22.760;2023-05-02T04:36:16;99587.17;;;6.80;72.80
58662;BME280;44432;49.786;22.760;2023-05-02T04:38:45;99591.11;;;6.92;72.70
58662;BME280;44432;49.786;22.760;2023-05-02T04:41:15;99588.25;;;7.05;72.12
58662;BME280;44432;49.786;22.760;2023-05-02T04:43:44;99591.52;;;7.16;72.04
58662;BME280;44432;49.786;22.760;2023-05-02T04:46:13;99593.56;;;7.25;71.79
58662;BME280;44432;49.786;22.760;2023-05-02T04:48:42;99593.69;;;7.34;71.12
58662;BME280;44432;49.786;22.760;2023-05-02T04:51:11;99596.80;;;7.41;71.43
58662;BME280;44432;49.786;22.760;2023-05-02T04:53:40;99600.09;;;7.49;71.06
58662;BME280;44432;49.786;22.760;2023-05-02T04:56:09;99595.90;;;7.54;70.95
58662;BME280;44432;49.786;22.760;2023-05-02T04:58:39;99597.76;;;7.58;70.48
58662;BME280;44432;49.786;22.760;2023-05-02T05:01:08;99596.84;;;7.61;70.45
58662;BME280;44432;49.786;22.760;2023-05-02T05:03:37;99600.02;;;7.68;70.32
58662;BME280;44432;49.786;22.760;2023-05-02T05:06:06;99597.55;;;7.75;70.26
58662;BME280;44432;49.786;22.760;2023-05-02T05:08:36;99603.52;;;7.81;70.07
58662;BME280;44432;49.786;22.760;2023-05-02T05:11:05;99604.89;;;7.86;69.81
58662;BME280;44432;49.786;22.760;2023-05-02T05:13:34;99604.40;;;7.88;69.68
58662;BME280;44432;49.786;22.760;2023-05-02T05:16:03;99608.52;;;7.92;69.89
58662;BME280;44432;49.786;22.760;2023-05-02T05:18:32;99609.16;;;7.95;69.79
58662;BME280;44432;49.786;22.760;2023-05-02T05:21:07;99612.30;;;7.98;69.67
58662;BME280;44432;49.786;22.760;2023-05-02T05:23:36;99605.64;;;8.00;69.17
58662;BME280;44432;49.786;22.760;2023-05-02T05:26:12;99607.68;;;8.02;69.49
58662;BME280;44432;49.786;22.760;2023-05-02T05:28:41;99607.03;;;8.05;69.45
58662;BME280;44432;49.786;22.760;2023-05-02T05:31:11;99605.53;;;8.09;69.24
58662;BME280;44432;49.786;22.760;2023-05-02T05:33:43;99602.69;;;8.12;69.04
58662;BME280;44432;49.786;22.760;2023-05-02T05:36:12;99603.48;;;8.15;69.05
58662;BME280;44432;49.786;22.760;2023-05-02T05:38:42;99603.33;;;8.20;69.15
58662;BME280;44432;49.786;22.760;2023-05-02T05:41:11;99599.14;;;8.24;69.02
58662;BME280;44432;49.786;22.760;2023-05-02T05:43:40;99599.45;;;8.27;68.54
58662;BME280;44432;49.786;22.760;2023-05-02T05:46:09;99602.24;;;8.31;68.74
58662;BME280;44432;49.786;22.760;2023-05-02T05:48:38;99602.91;;;8.39;68.26
58662;BME280;44432;49.786;22.760;2023-05-02T05:51:08;99603.96;;;8.48;67.89
58662;BME280;44432;49.786;22.760;2023-05-02T05:53:37;99606.72;;;8.59;67.76
58662;BME280;44432;49.786;22.760;2023-05-02T05:56:09;99608.13;;;8.70;67.29
58662;BME280;44432;49.786;22.760;2023-05-02T05:58:38;99605.84;;;8.83;67.16
58662;BME280;44432;49.786;22.760;2023-05-02T06:01:09;99608.44;;;8.99;66.60
58662;BME280;44432;49.786;22.760;2023-05-02T06:03:38;99608.11;;;9.13;66.42
58662;BME280;44432;49.786;22.760;2023-05-02T06:06:07;99610.02;;;9.28;66.30
58662;BME280;44432;49.786;22.760;2023-05-02T06:08:36;99614.26;;;9.43;66.05
58662;BME280;44432;49.786;22.760;2023-05-02T06:11:08;99613.62;;;9.55;65.95
58662;BME280;44432;49.786;22.760;2023-05-02T06:13:38;99614.23;;;9.66;65.96
58662;BME280;44432;49.786;22.760;2023-05-02T06:16:07;99612.55;;;9.76;66.01
58662;BME280;44432;49.786;22.760;2023-05-02T06:18:36;99608.89;;;9.88;65.70
58662;BME280;44432;49.786;22.760;2023-05-02T06:21:05;99609.56;;;10.01;65.44
58662;BME280;44432;49.786;22.760;2023-05-02T06:23:35;99607.63;;;10.11;65.19
58662;BME280;44432;49.786;22.760;2023-05-02T06:26:04;99609.35;;;10.25;64.86
58662;BME280;44432;49.786;22.760;2023-05-02T06:28:33;99608.13;;;10.37;64.78
58662;BME280;44432;49.786;22.760;2023-05-02T06:31:03;99605.83;;;10.49;64.54
58662;BME280;44432;49.786;22.760;2023-05-02T06:33:32;99602.17;;;10.59;64.47
58662;BME280;44432;49.786;22.760;2023-05-02T06:36:02;99603.79;;;10.71;64.54
58662;BME280;44432;49.786;22.760;2023-05-02T06:38:31;99602.73;;;10.87;64.42
58662;BME280;44432;49.786;22.760;2023-05-02T06:41:00;99604.17;;;11.01;64.30
58662;BME280;44432;49.786;22.760;2023-05-02T06:43:29;99601.02;;;11.14;64.05
58662;BME280;44432;49.786;22.760;2023-05-02T06:45:59;99603.61;;;11.28;63.81
58662;BME280;44432;49.786;22.760;2023-05-02T06:48:28;99600.42;;;11.40;63.68
58662;BME280;44432;49.786;22.760;2023-05-02T06:50:57;99604.56;;;11.55;63.44
58662;BME280;44432;49.786;22.760;2023-05-02T06:53:26;99599.98;;;11.70;63.61
58662;BME280;44432;49.786;22.760;2023-05-02T06:55:55;99597.41;;;11.85;63.02
58662;BME280;44432;49.786;22.760;2023-05-02T06:58:25;99598.85;;;12.01;62.29
58662;BME280;44432;49.786;22.760;2023-05-02T07:00:54;99599.00;;;12.15;61.80
58662;BME280;44432;49.786;22.760;2023-05-02T07:03:23;99599.58;;;12.31;61.68
58662;BME280;44432;49.786;22.760;2023-05-02T07:05:52;99593.82;;;12.47;61.44
58662;BME280;44432;49.786;22.760;2023-05-02T07:08:21;99598.10;;;12.63;61.00
58662;BME280;44432;49.786;22.760;2023-05-02T07:10:50;99595.92;;;12.78;60.72
58662;BME280;44432;49.786;22.760;2023-05-02T07:13:19;99592.42;;;12.93;60.21
58662;BME280;44432;49.786;22.760;2023-05-02T07:15:48;99591.18;;;13.10;60.09
58662;BME280;44432;49.786;22.760;2023-05-02T07:18:17;99592.71;;;13.30;59.91
58662;BME280;44432;49.786;22.760;2023-05-02T07:20:46;99592.89;;;13.47;59.46
58662;BME280;44432;49.786;22.760;2023-05-02T07:23:15;99591.52;;;13.66;59.52
58662;BME280;44432;49.786;22.760;2023-05-02T07:25:44;99589.66;;;13.86;59.38
58662;BME280;44432;49.786;22.760;2023-05-02T07:28:15;99587.15;;;14.07;59.19
58662;BME280;44432;49.786;22.760;2023-05-02T07:30:44;99589.84;;;14.27;59.01
58662;BME280;44432;49.786;22.760;2023-05-02T07:33:13;99588.65;;;14.50;58.70
58662;BME280;44432;49.786;22.760;2023-05-02T07:35:42;99584.45;;;14.72;58.51
58662;BME280;44432;49.786;22.760;2023-05-02T07:38:12;99585.94;;;14.93;58.14
58662;BME280;44432;49.786;22.760;2023-05-02T07:40:41;99585.35;;;15.13;57.87
58662;BME280;44432;49.786;22.760;2023-05-02T07:43:10;99578.77;;;15.34;57.46
58662;BME280;44432;49.786;22.760;2023-05-02T07:45:39;99578.98;;;15.56;57.34
58662;BME280;44432;49.786;22.760;2023-05-02T07:48:08;99572.26;;;15.78;56.99
58662;BME280;44432;49.786;22.760;2023-05-02T07:50:37;99571.23;;;16.02;56.48
58662;BME280;44432;49.786;22.760;2023-05-02T07:53:06;99572.25;;;16.31;55.91
58662;BME280;44432;49.786;22.760;2023-05-02T07:55:35;99569.00;;;16.63;55.20
58662;BME280;44432;49.786;22.760;2023-05-02T07:58:05;99568.10;;;16.95;54.51
58662;BME280;44432;49.786;22.760;2023-05-02T08:00:34;99560.39;;;17.21;54.16
58662;BME280;44432;49.786;22.760;2023-05-02T08:03:03;99561.06;;;17.47;53.66
58662;BME280;44432;49.786;22.760;2023-05-02T08:05:33;99558.77;;;17.73;52.91
58662;BME280;44432;49.786;22.760;2023-05-02T08:08:02;99558.25;;;17.97;52.17
58662;BME280;44432;49.786;22.760;2023-05-02T08:10:31;99559.73;;;18.21;51.58
58662;BME280;44432;49.786;22.760;2023-05-02T08:13:00;99560.13;;;18.43;51.03
58662;BME280;44432;49.786;22.760;2023-05-02T08:15:29;99555.59;;;18.68;50.54
58662;BME280;44432;49.786;22.760;2023-05-02T08:17:58;99549.06;;;18.90;49.75
58662;BME280;44432;49.786;22.760;2023-05-02T08:20:28;99544.58;;;19.14;49.29
58662;BME280;44432;49.786;22.760;2023-05-02T08:22:57;99545.62;;;19.37;48.45
58662;BME280;44432;49.786;22.760;2023-05-02T08:25:26;99544.25;;;19.57;48.07
58662;BME280;44432;49.786;22.760;2023-05-02T08:27:56;99538.97;;;19.79;47.30
58662;BME280;44432;49.786;22.760;2023-05-02T08:30:25;99542.57;;;20.03;46.79
58662;BME280;44432;49.786;22.760;2023-05-02T08:32:54;99540.31;;;20.29;45.95
58662;BME280;44432;49.786;22.760;2023-05-02T08:35:23;99541.77;;;20.54;44.93
58662;BME280;44432;49.786;22.760;2023-05-02T08:37:53;99540.17;;;20.70;43.61
58662;BME280;44432;49.786;22.760;2023-05-02T08:40:22;99537.78;;;20.78;43.66
58662;BME280;44432;49.786;22.760;2023-05-02T08:42:52;99539.23;;;20.90;43.51
58662;BME280;44432;49.786;22.760;2023-05-02T08:45:22;99543.86;;;21.00;42.73
58662;BME280;44432;49.786;22.760;2023-05-02T08:47:51;99546.63;;;21.09;42.66
58662;BME280;44432;49.786;22.760;2023-05-02T08:50:21;99547.28;;;21.21;42.75
58662;BME280;44432;49.786;22.760;2023-05-02T08:52:50;99545.48;;;21.32;42.40
58662;BME280;44432;49.786;22.760;2023-05-02T08:55:20;99543.51;;;21.39;41.87
58662;BME280;44432;49.786;22.760;2023-05-02T08:57:55;99542.15;;;21.42;40.91
58662;BME280;44432;49.786;22.760;2023-05-02T09:00:25;99540.45;;;21.48;40.86
58662;BME280;44432;49.786;22.760;2023-05-02T09:02:58;99535.45;;;21.57;40.93
58662;BME280;44432;49.786;22.760;2023-05-02T09:05:32;99537.02;;;21.66;40.76
58662;BME280;44432;49.786;22.760;2023-05-02T09:08:01;99533.62;;;21.74;40.31
58662;BME280;44432;49.786;22.760;2023-05-02T09:10:30;99534.39;;;21.84;39.79
58662;BME280;44432;49.786;22.760;2023-05-02T09:15:52;99536.45;;;22.12;39.52
58662;BME280;44432;49.786;22.760;2023-05-02T09:18:24;99535.89;;;22.34;39.34
58662;BME280;44432;49.786;22.760;2023-05-02T09:20:55;99526.48;;;22.51;39.04
58662;BME280;44432;49.786;22.760;2023-05-02T09:23:32;99531.57;;;22.68;38.80
58662;BME280;44432;49.786;22.760;2023-05-02T09:26:02;99525.10;;;22.85;38.79
58662;BME280;44432;49.786;22.760;2023-05-02T09:28:39;99526.95;;;23.00;38.31
58662;BME280;44432;49.786;22.760;2023-05-02T09:31:09;99532.18;;;23.12;38.14
58662;BME280;44432;49.786;22.760;2023-05-02T09:33:38;99532.56;;;23.21;37.90
58662;BME280;44432;49.786;22.760;2023-05-02T09:36:09;99528.95;;;23.29;37.60
58662;BME280;44432;49.786;22.760;2023-05-02T09:38:38;99527.74;;;23.34;37.60
58662;BME280;44432;49.786;22.760;2023-05-02T09:41:07;99530.04;;;23.48;37.67
58662;BME280;44432;49.786;22.760;2023-05-02T09:43:36;99533.08;;;23.64;37.25
58662;BME280;44432;49.786;22.760;2023-05-02T09:46:07;99534.60;;;23.66;36.41
58662;BME280;44432;49.786;22.760;2023-05-02T09:51:20;99532.23;;;23.79;36.20
58662;BME280;44432;49.786;22.760;2023-05-02T09:53:49;99532.96;;;23.89;36.18
58662;BME280;44432;49.786;22.760;2023-05-02T09:56:19;99536.14;;;23.95;35.68
58662;BME280;44432;49.786;22.760;2023-05-02T09:58:48;99530.42;;;23.97;35.10
58662;BME280;44432;49.786;22.760;2023-05-02T10:01:17;99532.61;;;23.95;34.49
58662;BME280;44432;49.786;22.760;2023-05-02T10:03:47;99526.41;;;23.89;33.76
58662;BME280;44432;49.786;22.760;2023-05-02T10:06:17;99525.38;;;23.80;34.15
58662;BME280;44432;49.786;22.760;2023-05-02T10:08:47;99520.45;;;23.75;33.17
58662;BME280;44432;49.786;22.760;2023-05-02T10:11:16;99520.95;;;23.67;32.92
58662;BME280;44432;49.786;22.760;2023-05-02T10:13:46;99521.18;;;23.59;32.13
58662;BME280;44432;49.786;22.760;2023-05-02T10:16:16;99523.45;;;23.54;33.02
58662;BME280;44432;49.786;22.760;2023-05-02T10:18:54;99523.73;;;23.54;32.92
58662;BME280;44432;49.786;22.760;2023-05-02T10:21:26;99520.43;;;23.54;33.35
58662;BME280;44432;49.786;22.760;2023-05-02T10:23:56;99518.85;;;23.60;32.94
58662;BME280;44432;49.786;22.760;2023-05-02T10:26:26;99520.02;;;23.65;33.52
58662;BME280;44432;49.786;22.760;2023-05-02T10:28:55;99522.02;;;23.71;33.38
58662;BME280;44432;49.786;22.760;2023-05-02T10:31:24;99517.45;;;23.77;33.40
58662;BME280;44432;49.786;22.760;2023-05-02T10:33:54;99517.95;;;23.92;33.67
58662;BME280;44432;49.786;22.760;2023-05-02T10:36:23;99516.40;;;24.07;33.42
58662;BME280;44432;49.786;22.760;2023-05-02T10:38:53;99514.44;;;24.21;32.93
58662;BME280;44432;49.786;22.760;2023-05-02T10:41:23;99513.60;;;24.30;32.74
58662;BME280;44432;49.786;22.760;2023-05-02T10:43:53;99508.52;;;24.40;32.57
58662;BME280;44432;49.786;22.760;2023-05-02T10:46:32;99506.39;;;24.41;32.16
58662;BME280;44432;49.786;22.760;2023-05-02T10:49:03;99500.25;;;24.43;32.66
58662;BME280;44432;49.786;22.760;2023-05-02T10:51:32;99504.59;;;24.57;32.96
58662;BME280;44432;49.786;22.760;2023-05-02T10:57:04;99508.55;;;24.54;32.15
58662;BME280;44432;49.786;22.760;2023-05-02T10:59:35;99503.08;;;24.36;32.64
58662;BME280;44432;49.786;22.760;2023-05-02T11:02:04;99505.98;;;24.31;32.80
58662;BME280;44432;49.786;22.760;2023-05-02T11:07:20;99515.56;;;23.93;32.61
58662;BME280;44432;49.786;22.760;2023-05-02T11:09:49;99517.13;;;23.85;33.12
58662;BME280;44432;49.786;22.760;2023-05-02T11:15:01;99516.31;;;24.00;33.50
58662;BME280;44432;49.786;22.760;2023-05-02T11:17:31;99514.50;;;24.08;33.18
58662;BME280;44432;49.786;22.760;2023-05-02T11:20:19;99509.04;;;24.15;33.22
58662;BME280;44432;49.786;22.760;2023-05-02T11:22:48;99507.86;;;24.17;32.95
58662;BME280;44432;49.786;22.760;2023-05-02T11:25:30;99502.29;;;24.15;32.90
58662;BME280;44432;49.786;22.760;2023-05-02T11:28:00;99495.48;;;24.23;32.99
58662;BME280;44432;49.786;22.760;2023-05-02T11:30:39;99490.72;;;24.33;32.81
58662;BME280;44432;49.786;22.760;2023-05-02T11:33:11;99492.94;;;24.45;32.53
58662;BME280;44432;49.786;22.760;2023-05-02T11:35:43;99493.23;;;24.53;32.45
58662;BME280;44432;49.786;22.760;2023-05-02T11:38:14;99488.89;;;24.57;32.06
58662;BME280;44432;49.786;22.760;2023-05-02T11:40:50;99484.59;;;24.66;32.21
58662;BME280;44432;49.786;22.760;2023-05-02T11:43:19;99495.84;;;24.81;31.93
58662;BME280;44432;49.786;22.760;2023-05-02T11:45:49;99499.08;;;24.98;31.40
58662;BME280;44432;49.786;22.760;2023-05-02T11:48:19;99492.27;;;25.03;31.20
58662;BME280;44432;49.786;22.760;2023-05-02T11:50:50;99493.16;;;25.02;31.17
58662;BME280;44432;49.786;22.760;2023-05-02T11:53:20;99494.86;;;24.95;31.33
58662;BME280;44432;49.786;22.760;2023-05-02T11:55:50;99489.47;;;24.85;31.14
58662;BME280;44432;49.786;22.760;2023-05-02T11:58:20;99483.53;;;24.79;31.25
58662;BME280;44432;49.786;22.760;2023-05-02T12:00:50;99489.73;;;24.74;30.82
58662;BME280;44432;49.786;22.760;2023-05-02T12:03:25;99482.31;;;24.70;30.58
58662;BME280;44432;49.786;22.760;2023-05-02T12:05:54;99479.03;;;24.66;30.92
58662;BME280;44432;49.786;22.760;2023-05-02T12:08:26;99477.56;;;24.69;31.01
58662;BME280;44432;49.786;22.760;2023-05-02T12:10:55;99477.74;;;24.76;30.79
58662;BME280;44432;49.786;22.760;2023-05-02T12:13:25;99475.50;;;24.83;30.68
58662;BME280;44432;49.786;22.760;2023-05-02T12:15:54;99472.80;;;24.91;30.21
58662;BME280;44432;49.786;22.760;2023-05-02T12:18:24;99475.83;;;24.91;29.91
58662;BME280;44432;49.786;22.760;2023-05-02T12:20:54;99475.83;;;24.99;30.14
58662;BME280;44432;49.786;22.760;2023-05-02T12:23:23;99468.08;;;25.03;29.57
58662;BME280;44432;49.786;22.760;2023-05-02T12:25:54;99463.09;;;25.06;29.67
58662;BME280;44432;49.786;22.760;2023-05-02T12:28:23;99461.39;;;25.12;29.17
58662;BME280;44432;49.786;22.760;2023-05-02T12:30:52;99456.13;;;25.16;29.07
58662;BME280;44432;49.786;22.760;2023-05-02T12:33:21;99456.95;;;25.22;29.06
58662;BME280;44432;49.786;22.760;2023-05-02T12:35:50;99456.30;;;25.32;28.82
58662;BME280;44432;49.786;22.760;2023-05-02T12:38:20;99461.19;;;25.38;28.40
58662;BME280;44432;49.786;22.760;2023-05-02T12:40:50;99456.25;;;25.41;28.32
58662;BME280;44432;49.786;22.760;2023-05-02T12:43:20;99452.84;;;25.44;28.11
58662;BME280;44432;49.786;22.760;2023-05-02T12:45:49;99450.88;;;25.49;28.37
58662;BME280;44432;49.786;22.760;2023-05-02T12:48:21;99456.95;;;25.57;28.38
58662;BME280;44432;49.786;22.760;2023-05-02T12:50:50;99452.55;;;25.63;28.08
58662;BME280;44432;49.786;22.760;2023-05-02T12:56:02;99451.23;;;25.78;27.53
58662;BME280;44432;49.786;22.760;2023-05-02T12:58:37;99446.70;;;25.80;27.31
58662;BME280;44432;49.786;22.760;2023-05-02T13:01:08;99452.70;;;25.84;27.22
58662;BME280;44432;49.786;22.760;2023-05-02T13:03:37;99446.45;;;25.81;27.19
58662;BME280;44432;49.786;22.760;2023-05-02T13:06:06;99442.91;;;25.80;27.03
58662;BME280;44432;49.786;22.760;2023-05-02T13:08:35;99435.95;;;25.75;26.71
58662;BME280;44432;49.786;22.760;2023-05-02T13:11:04;99439.75;;;25.78;27.12
58662;BME280;44432;49.786;22.760;2023-05-02T13:13:34;99427.48;;;25.91;27.29
58662;BME280;44432;49.786;22.760;2023-05-02T13:16:03;99422.86;;;26.04;27.74
58662;BME280;44432;49.786;22.760;2023-05-02T13:18:32;99427.39;;;26.16;27.36
58662;BME280;44432;49.786;22.760;2023-05-02T13:21:01;99422.36;;;26.22;26.54
58662;BME280;44432;49.786;22.760;2023-05-02T13:23:31;99419.91;;;26.16;26.02
58662;BME280;44432;49.786;22.760;2023-05-02T13:26:01;99419.70;;;26.12;25.78
58662;BME280;44432;49.786;22.760;2023-05-02T13:28:30;99415.04;;;26.08;25.91